Storm Events Database

Event Details

Event Thunderstorm Wind
Magnitude 52 kts.
State TEXAS
County/Area CROSBY
WFO LUB
Report Source Mesonet
NCDC Data Source CSV
Begin Date 2008-06-19 18:50:00.0 CST-6
Begin Location 8NNW KALGARY
Begin Lat/Lon 33.51/-101.2
End Date 2008-06-19 18:50:00.0 CST-6
Deaths Direct/Indirect 0/0 (fatality details below, when available...)
Injuries Direct/Indirect 0/0
Property Damage 0.00K
Crop Damage 0.00K
Episode Narrative A very active severe weather event impacted the South Plains of west Texas during the late afternoon and evening of the 19th. Isolated thunderstorms initially developed along a pre-existing outflow boundary from the central Texas Panhandle southeastward over the northern Rolling Plains. These storms produced large hail, damaging winds, and at least one tornado in northern Cottle County.
Thunderstorms rapidly became widespread over the South Plains during the evening hours. Many of the storms were severe with large hail up to the size of golf balls and damaging winds in excess of 70 mph. Damage was largely limited to utility poles, lines, and trees. Losses due to agricultural damages, however, were estimated to exceed $1.1 million.
Event Narrative A Texas Tech University West Texas Mesonet site located northwest of White River Lake recorded a thunderstorm wind gust of 60 mph at 18:50 CST. No damage was reported.


     ‚Äč



All events for this episode:

Location County/Zone St. Date Time T.Z. Type Mag Dth Inj PrD CrD
Totals: 0 0 220.00K 1.150M
ESTELLINE HALL CO. TX 06/19/2008 15:21 CST-6 Hail 1.00 in. 0 0 0.00K 0.00K
TELL CHILDRESS CO. TX 06/19/2008 16:09 CST-6 Hail 0.88 in. 0 0 0.00K 0.00K
PADUCAH COTTLE CO. TX 06/19/2008 16:28 CST-6 Tornado EF0 0 0 0.00K 0.00K
PADUCAH COTTLE CO. TX 06/19/2008 17:26 CST-6 Hail 1.75 in. 0 0 0.00K 1.000M
SILVERTON BRISCOE CO. TX 06/19/2008 17:26 CST-6 Hail 1.75 in. 0 0 0.00K 0.00K
FLOMOT MOTLEY CO. TX 06/19/2008 17:30 CST-6 Hail 0.75 in. 0 0 0.00K 0.00K
PADUCAH COTTLE CO. TX 06/19/2008 17:33 CST-6 Thunderstorm Wind 56 kts. EG 0 0 20.00K 0.00K
LOCKNEY FLOYD CO. TX 06/19/2008 17:50 CST-6 Thunderstorm Wind 54 kts. MG 0 0 20.00K 0.00K
MATADOR MOTLEY CO. TX 06/19/2008 18:10 CST-6 Hail 1.75 in. 0 0 0.00K 0.00K
OLTON LAMB CO. TX 06/19/2008 18:45 CST-6 Thunderstorm Wind 50 kts. MG 0 0 0.00K 0.00K
LOCKNEY FLOYD CO. TX 06/19/2008 18:46 CST-6 Hail 0.75 in. 0 0 0.00K 0.00K
KALGARY CROSBY CO. TX 06/19/2008 18:50 CST-6 Thunderstorm Wind 52 kts. MG 0 0 0.00K 0.00K
MC ADOO DICKENS CO. TX 06/19/2008 18:50 CST-6 Hail 0.88 in. 0 0 0.00K 0.00K
HALFWAY HALE CO. TX 06/19/2008 19:00 CST-6 Hail 1.75 in. 0 0 0.00K 0.00K
GUTHRIE KING CO. TX 06/19/2008 19:05 CST-6 Thunderstorm Wind 56 kts. MG 0 0 0.00K 0.00K
SPUR DICKENS CO. TX 06/19/2008 19:10 CST-6 Thunderstorm Wind 53 kts. MG 0 0 0.00K 0.00K
SHALLOWATER LUBBOCK CO. TX 06/19/2008 19:31 CST-6 Thunderstorm Wind 56 kts. EG 0 0 25.00K 0.00K
JUSTICEBURG GARZA CO. TX 06/19/2008 19:45 CST-6 Thunderstorm Wind 52 kts. EG 0 0 0.00K 0.00K
ASPERMONT STONEWALL CO. TX 06/19/2008 19:50 CST-6 Thunderstorm Wind 57 kts. MG 0 0 0.00K 0.00K
LUBBOCK LUBBOCK CO. TX 06/19/2008 19:50 CST-6 Hail 1.50 in. 0 0 10.00K 0.00K
WHITHARRAL HOCKLEY CO. TX 06/19/2008 20:05 CST-6 Hail 1.75 in. 0 0 0.00K 0.00K
HART CASTRO CO. TX 06/19/2008 20:10 CST-6 Hail 1.00 in. 0 0 0.00K 0.00K
SHALLOWATER LUBBOCK CO. TX 06/19/2008 20:15 CST-6 Thunderstorm Wind 50 kts. MG 0 0 0.00K 0.00K
ROPESVILLE HOCKLEY CO. TX 06/19/2008 20:30 CST-6 Thunderstorm Wind 52 kts. EG 0 0 0.00K 0.00K
TAHOKA LYNN CO. TX 06/19/2008 20:30 CST-6 Thunderstorm Wind 53 kts. MG 0 0 0.00K 0.00K
POST GARZA CO. TX 06/19/2008 21:15 CST-6 Thunderstorm Wind 58 kts. MG 0 0 0.00K 0.00K
SUMMERFIELD CASTRO CO. TX 06/19/2008 21:19 CST-6 Hail 1.75 in. 0 0 0.00K 0.00K
LEVELLAND HOCKLEY CO. TX 06/19/2008 21:49 CST-6 Thunderstorm Wind 62 kts. MG 0 0 20.00K 0.00K
LUBBOCK LUBBOCK CO. TX 06/19/2008 21:50 CST-6 Lightning 0 0 125.00K 0.00K
REESE AFB LUBBOCK CO. TX 06/19/2008 21:50 CST-6 Thunderstorm Wind 55 kts. MG 0 0 0.00K 0.00K
BROWNFIELD TERRY CO. TX 06/19/2008 22:10 CST-6 Hail 0.75 in. 0 0 0.00K 150.00K
BROWNFIELD TERRY CO. TX 06/19/2008 22:14 CST-6 Thunderstorm Wind 52 kts. EG 0 0 0.00K 0.00K
Totals: 0 0 220.00K 1.150M